createdAt,value
2022-12-29T04:45:28.310Z,6.52
2022-12-29T04:50:23.095Z,6.53
2022-12-29T04:55:16.976Z,6.51
2022-12-29T05:00:13.999Z,6.32
2022-12-29T05:05:08.677Z,6.24
2022-12-29T05:10:03.487Z,6.23
2022-12-29T05:14:56.835Z,6.14
2022-12-29T05:19:50.162Z,6.06
2022-12-29T05:24:43.554Z,5.98
2022-12-29T05:29:38.256Z,5.94
2022-12-29T05:34:31.643Z,5.91
2022-12-29T05:39:25.161Z,5.82
2022-12-29T06:09:58.866Z,5.74
2022-12-29T10:16:45.885Z,8.95
2022-12-29T11:40:05.468Z,9.10
2022-12-29T11:44:58.940Z,9.30
2022-12-29T11:49:57.568Z,9.58
2022-12-29T11:54:51.245Z,9.43
2022-12-29T14:55:43.041Z,9.27
2022-12-29T15:00:38.835Z,9.25
2022-12-29T15:05:44.751Z,9.24
2022-12-29T15:10:50.077Z,9.30
2022-12-29T15:15:46.394Z,9.32
2022-12-29T15:20:40.290Z,9.32
2022-12-29T15:25:34.137Z,9.31
2022-12-29T15:30:29.194Z,9.25
2022-12-29T15:35:31.460Z,9.28
2022-12-29T15:40:28.485Z,9.21
2022-12-29T15:45:22.510Z,9.32
2022-12-29T15:50:26.170Z,9.22
2022-12-29T15:55:30.700Z,9.34
2022-12-29T16:00:27.569Z,9.26
2022-12-29T16:05:23.056Z,9.33
2022-12-29T16:10:34.685Z,9.31
2022-12-29T16:15:29.444Z,9.27
2022-12-29T16:20:33.006Z,9.10
2022-12-29T16:25:32.607Z,9.12
2022-12-29T16:30:33.517Z,9.02
2022-12-29T16:35:31.117Z,9.01
2022-12-29T16:40:32.400Z,9.00
2022-12-29T16:46:19.898Z,8.97
2022-12-29T16:51:21.021Z,8.97
2022-12-29T16:56:19.634Z,9.03
2022-12-29T17:01:15.777Z,8.98
2022-12-29T17:06:16.695Z,8.97
2022-12-29T17:30:13.663Z,9.04
2022-12-29T17:35:07.637Z,9.06
2022-12-29T17:40:01.117Z,9.09
2022-12-29T18:31:37.802Z,8.59
2022-12-29T18:36:32.780Z,8.66
2022-12-29T18:46:41.838Z,8.56
2022-12-29T18:51:35.337Z,8.57
2022-12-29T18:56:28.774Z,8.53
2022-12-29T19:01:25.395Z,8.37
2022-12-29T19:06:22.041Z,8.39
2022-12-29T19:11:15.670Z,8.49
2022-12-29T20:01:09.178Z,8.41
2022-12-29T20:06:05.812Z,8.39
2022-12-29T20:11:04.737Z,8.30
